Al Betroleya — V7KY4 — position and weather

sailwx.info

Track history (hours):
 
Tides and Currents Weather Stations Pressure Air Temp Water Temp Dewpoint Dewpoint Depression Visibility Wind Speed Wind Dir Waves Ship Positions

Al Betroleya

Last reported at 2017-Dec-04 09:42 UTC. Time now 2018-Jan-22 00:38 UTC.
Position N 35°36' E 027°45'.
Warning: this ship's position is 48 days out of date.

Length 183 m; draft 9.9 m.

Type: Tanker. MMSI: 538006239.

Date/timePositionNaut miles runAvg speedWind from/ knotsBaromVisibWave heightAir tempDewpointWater temp
2017-Dec-04 09:42N 35°36' E 027°45'211.8
2017-Dec-04 09:30N 35°37' E 027°43'4312.1
2017-Dec-04 05:55N 36°11' E 027°08'511.9
2017-Dec-04 05:30N 36°15' E 027°04'811.4
2017-Dec-04 04:50N 36°20' E 026°58'410.8
2017-Dec-04 04:28N 36°23' E 026°55'510.9
2017-Dec-04 04:01N 36°27' E 026°51'611.0
2017-Dec-04 03:31N 36°32' E 026°47'510.7
2017-Dec-04 03:00N 36°37' E 026°45'510.9
2017-Dec-04 02:30N 36°42' E 026°44'510.9
2017-Dec-04 02:00N 36°48' E 026°42'510.8
2017-Dec-04 01:31N 36°53' E 026°41'510.8
2017-Dec-04 01:00N 36°58' E 026°39'510.7
2017-Dec-04 00:30N 37°03' E 026°38'510.7
2017-Dec-04 00:01N 37°07' E 026°33'611.2
2017-Dec-03 23:31N 37°10' E 026°27'611.3
2017-Dec-03 23:01N 37°13' E 026°21'611.3
2017-Dec-03 22:31N 37°16' E 026°15'510.9
2017-Dec-03 22:01N 37°19' E 026°10'511.0
2017-Dec-03 21:31N 37°22' E 026°04'510.9
2017-Dec-03 21:01N 37°25' E 025°58'510.6
2017-Dec-03 20:31N 37°29' E 025°53'610.8
2017-Dec-03 19:55N 37°32' E 025°46'511.2
2017-Dec-03 19:30N 37°35' E 025°41'511.2
2017-Dec-03 19:01N 37°40' E 025°40'510.9
2017-Dec-03 18:31N 37°45' E 025°38'510.8
2017-Dec-03 18:01N 37°51' E 025°36'511.0
2017-Dec-03 17:31N 37°56' E 025°34'510.9
2017-Dec-03 17:01N 38°01' E 025°33'510.6
2017-Dec-03 16:31N 38°06' E 025°31'510.5
2017-Dec-03 16:01N 38°11' E 025°29'610.4
2017-Dec-03 15:28N 38°17' E 025°27'910.2
2017-Dec-03 14:34N 38°26' E 025°25'110.1
2017-Dec-03 14:30N 38°26' E 025°24'  
Track history (hours):
 
Tides and Currents Weather Stations Pressure Air Temp Water Temp Dewpoint Dewpoint Depression Visibility Wind Speed Wind Dir Waves Ship Positions

Al Betroleya

Last reported at 2017-Dec-04 09:42 UTC. Time now 2018-Jan-22 00:38 UTC.
Position N 35°36' E 027°45'.
Warning: this ship's position is 48 days out of date.

Length 183 m; draft 9.9 m.

Type: Tanker. MMSI: 538006239.

Date/timePositionNaut miles runAvg speedWind from/ knotsBaromVisibWave heightAir tempDewpointWater temp
2017-Dec-04 09:42N 35°36' E 027°45'211.8
2017-Dec-04 09:30N 35°37' E 027°43'4312.1
2017-Dec-04 05:55N 36°11' E 027°08'511.9
2017-Dec-04 05:30N 36°15' E 027°04'811.4
2017-Dec-04 04:50N 36°20' E 026°58'410.8
2017-Dec-04 04:28N 36°23' E 026°55'510.9
2017-Dec-04 04:01N 36°27' E 026°51'611.0
2017-Dec-04 03:31N 36°32' E 026°47'510.7
2017-Dec-04 03:00N 36°37' E 026°45'510.9
2017-Dec-04 02:30N 36°42' E 026°44'510.9
2017-Dec-04 02:00N 36°48' E 026°42'510.8
2017-Dec-04 01:31N 36°53' E 026°41'510.8
2017-Dec-04 01:00N 36°58' E 026°39'510.7
2017-Dec-04 00:30N 37°03' E 026°38'510.7
2017-Dec-04 00:01N 37°07' E 026°33'611.2
2017-Dec-03 23:31N 37°10' E 026°27'611.3
2017-Dec-03 23:01N 37°13' E 026°21'611.3
2017-Dec-03 22:31N 37°16' E 026°15'510.9
2017-Dec-03 22:01N 37°19' E 026°10'511.0
2017-Dec-03 21:31N 37°22' E 026°04'510.9
2017-Dec-03 21:01N 37°25' E 025°58'510.6
2017-Dec-03 20:31N 37°29' E 025°53'610.8
2017-Dec-03 19:55N 37°32' E 025°46'511.2
2017-Dec-03 19:30N 37°35' E 025°41'511.2
2017-Dec-03 19:01N 37°40' E 025°40'510.9
2017-Dec-03 18:31N 37°45' E 025°38'510.8
2017-Dec-03 18:01N 37°51' E 025°36'511.0
2017-Dec-03 17:31N 37°56' E 025°34'510.9
2017-Dec-03 17:01N 38°01' E 025°33'510.6
2017-Dec-03 16:31N 38°06' E 025°31'510.5
2017-Dec-03 16:01N 38°11' E 025°29'610.4
2017-Dec-03 15:28N 38°17' E 025°27'910.2
2017-Dec-03 14:34N 38°26' E 025°25'110.1
2017-Dec-03 14:30N 38°26' E 025°24'  

Dump ship's entire track history